sensor_id;sensor_type;location;lat;lon;timestamp;temperature;humidity
42085;DHT22;27746;52.228;20.890;2023-05-10T00:00:41;10.10;67.60
42085;DHT22;27746;52.228;20.890;2023-05-10T00:03:07;10.10;68.30
42085;DHT22;27746;52.228;20.890;2023-05-10T00:05:34;10.10;68.00
42085;DHT22;27746;52.228;20.890;2023-05-10T00:08:01;10.00;67.90
42085;DHT22;27746;52.228;20.890;2023-05-10T00:10:29;10.00;68.10
42085;DHT22;27746;52.228;20.890;2023-05-10T00:12:56;10.00;68.00
42085;DHT22;27746;52.228;20.890;2023-05-10T00:15:23;9.90;68.10
42085;DHT22;27746;52.228;20.890;2023-05-10T00:17:50;9.90;68.90
42085;DHT22;27746;52.228;20.890;2023-05-10T00:20:17;9.90;69.70
42085;DHT22;27746;52.228;20.890;2023-05-10T00:22:44;9.90;68.90
42085;DHT22;27746;52.228;20.890;2023-05-10T00:25:11;8.40;68.50
42085;DHT22;27746;52.228;20.890;2023-05-10T00:27:39;9.70;69.30
42085;DHT22;27746;52.228;20.890;2023-05-10T00:30:07;9.70;69.70
42085;DHT22;27746;52.228;20.890;2023-05-10T00:32:34;9.60;69.60
42085;DHT22;27746;52.228;20.890;2023-05-10T00:35:01;9.60;69.80
42085;DHT22;27746;52.228;20.890;2023-05-10T00:37:27;9.60;69.80
42085;DHT22;27746;52.228;20.890;2023-05-10T00:39:54;9.60;69.70
42085;DHT22;27746;52.228;20.890;2023-05-10T00:42:21;9.50;70.10
42085;DHT22;27746;52.228;20.890;2023-05-10T00:44:50;9.50;70.70
42085;DHT22;27746;52.228;20.890;2023-05-10T00:47:17;9.50;70.20
42085;DHT22;27746;52.228;20.890;2023-05-10T00:49:44;9.40;70.20
42085;DHT22;27746;52.228;20.890;2023-05-10T00:52:12;9.40;70.30
42085;DHT22;27746;52.228;20.890;2023-05-10T00:54:38;9.40;70.00
42085;DHT22;27746;52.228;20.890;2023-05-10T00:57:05;9.40;70.10
42085;DHT22;27746;52.228;20.890;2023-05-10T00:59:32;9.40;70.60
42085;DHT22;27746;52.228;20.890;2023-05-10T01:02:01;9.30;70.20
42085;DHT22;27746;52.228;20.890;2023-05-10T01:04:28;9.30;70.10
42085;DHT22;27746;52.228;20.890;2023-05-10T01:06:55;9.30;70.70
42085;DHT22;27746;52.228;20.890;2023-05-10T01:09:22;9.20;70.40
42085;DHT22;27746;52.228;20.890;2023-05-10T01:11:52;9.20;70.40
42085;DHT22;27746;52.228;20.890;2023-05-10T01:14:20;9.20;70.50
42085;DHT22;27746;52.228;20.890;2023-05-10T01:16:49;9.20;70.70
42085;DHT22;27746;52.228;20.890;2023-05-10T01:19:22;12.20;72.10
42085;DHT22;27746;52.228;20.890;2023-05-10T01:21:53;9.10;70.60
42085;DHT22;27746;52.228;20.890;2023-05-10T01:27:30;9.10;70.40
42085;DHT22;27746;52.228;20.890;2023-05-10T01:33:15;9.00;70.30
42085;DHT22;27746;52.228;20.890;2023-05-10T01:35:50;9.00;70.30
42085;DHT22;27746;52.228;20.890;2023-05-10T01:38:22;10.00;71.00
42085;DHT22;27746;52.228;20.890;2023-05-10T01:40:59;9.00;70.50
42085;DHT22;27746;52.228;20.890;2023-05-10T01:43:33;8.90;70.60
42085;DHT22;27746;52.228;20.890;2023-05-10T01:46:07;8.90;70.80
42085;DHT22;27746;52.228;20.890;2023-05-10T01:48:38;8.90;71.00
42085;DHT22;27746;52.228;20.890;2023-05-10T01:51:09;8.90;71.30
42085;DHT22;27746;52.228;20.890;2023-05-10T01:53:38;8.80;71.00
42085;DHT22;27746;52.228;20.890;2023-05-10T01:56:07;10.40;72.00
42085;DHT22;27746;52.228;20.890;2023-05-10T01:58:34;8.70;71.20
42085;DHT22;27746;52.228;20.890;2023-05-10T02:01:04;8.70;71.50
42085;DHT22;27746;52.228;20.890;2023-05-10T02:03:32;8.70;71.70
42085;DHT22;27746;52.228;20.890;2023-05-10T02:06:02;8.70;71.80
42085;DHT22;27746;52.228;20.890;2023-05-10T02:08:30;8.60;71.70
42085;DHT22;27746;52.228;20.890;2023-05-10T02:10:57;8.60;71.80
42085;DHT22;27746;52.228;20.890;2023-05-10T02:13:28;8.60;71.80
42085;DHT22;27746;52.228;20.890;2023-05-10T02:15:57;8.50;71.80
42085;DHT22;27746;52.228;20.890;2023-05-10T02:18:26;8.50;72.80
42085;DHT22;27746;52.228;20.890;2023-05-10T02:20:54;8.50;72.40
42085;DHT22;27746;52.228;20.890;2023-05-10T02:23:23;8.40;72.40
42085;DHT22;27746;52.228;20.890;2023-05-10T02:25:52;8.40;72.10
42085;DHT22;27746;52.228;20.890;2023-05-10T02:28:21;8.40;72.60
42085;DHT22;27746;52.228;20.890;2023-05-10T02:30:49;8.40;72.60
42085;DHT22;27746;52.228;20.890;2023-05-10T02:33:17;8.30;72.40
42085;DHT22;27746;52.228;20.890;2023-05-10T02:35:45;8.30;72.90
42085;DHT22;27746;52.228;20.890;2023-05-10T02:38:13;8.40;73.00
42085;DHT22;27746;52.228;20.890;2023-05-10T02:40:42;8.30;72.70
42085;DHT22;27746;52.228;20.890;2023-05-10T02:43:13;8.30;72.90
42085;DHT22;27746;52.228;20.890;2023-05-10T02:45:41;8.30;73.00
42085;DHT22;27746;52.228;20.890;2023-05-10T02:48:09;8.30;73.10
42085;DHT22;27746;52.228;20.890;2023-05-10T02:50:37;8.20;73.10
42085;DHT22;27746;52.228;20.890;2023-05-10T02:53:10;8.30;72.90
42085;DHT22;27746;52.228;20.890;2023-05-10T02:55:41;8.20;73.60
42085;DHT22;27746;52.228;20.890;2023-05-10T02:58:13;8.10;73.50
42085;DHT22;27746;52.228;20.890;2023-05-10T03:00:39;8.10;73.70
42085;DHT22;27746;52.228;20.890;2023-05-10T03:03:06;8.10;74.00
42085;DHT22;27746;52.228;20.890;2023-05-10T03:05:33;8.10;74.00
42085;DHT22;27746;52.228;20.890;2023-05-10T03:08:00;8.10;73.90
42085;DHT22;27746;52.228;20.890;2023-05-10T03:10:31;8.10;74.00
42085;DHT22;27746;52.228;20.890;2023-05-10T03:13:07;8.00;74.00
42085;DHT22;27746;52.228;20.890;2023-05-10T03:15:42;8.00;74.00
42085;DHT22;27746;52.228;20.890;2023-05-10T03:18:16;8.00;74.10
42085;DHT22;27746;52.228;20.890;2023-05-10T03:20:47;8.00;74.40
42085;DHT22;27746;52.228;20.890;2023-05-10T03:23:21;8.00;74.40
42085;DHT22;27746;52.228;20.890;2023-05-10T03:25:50;8.00;74.40
42085;DHT22;27746;52.228;20.890;2023-05-10T03:28:20;8.00;74.60
42085;DHT22;27746;52.228;20.890;2023-05-10T03:30:47;8.00;74.50
42085;DHT22;27746;52.228;20.890;2023-05-10T03:33:16;8.00;74.50
42085;DHT22;27746;52.228;20.890;2023-05-10T03:35:42;8.00;74.70
42085;DHT22;27746;52.228;20.890;2023-05-10T03:38:11;8.00;74.50
42085;DHT22;27746;52.228;20.890;2023-05-10T03:40:38;8.00;75.00
42085;DHT22;27746;52.228;20.890;2023-05-10T03:43:05;8.10;74.70
42085;DHT22;27746;52.228;20.890;2023-05-10T03:45:33;8.10;74.90
42085;DHT22;27746;52.228;20.890;2023-05-10T03:48:00;8.10;74.80
42085;DHT22;27746;52.228;20.890;2023-05-10T03:50:27;8.10;74.60
42085;DHT22;27746;52.228;20.890;2023-05-10T03:52:54;8.20;74.20
42085;DHT22;27746;52.228;20.890;2023-05-10T03:55:21;8.20;74.50
42085;DHT22;27746;52.228;20.890;2023-05-10T03:57:48;8.30;74.30
42085;DHT22;27746;52.228;20.890;2023-05-10T04:00:15;8.20;74.60
42085;DHT22;27746;52.228;20.890;2023-05-10T04:02:43;8.30;74.20
42085;DHT22;27746;52.228;20.890;2023-05-10T04:05:10;8.40;73.60
42085;DHT22;27746;52.228;20.890;2023-05-10T04:07:38;8.40;73.90
42085;DHT22;27746;52.228;20.890;2023-05-10T04:10:05;8.40;73.80
42085;DHT22;27746;52.228;20.890;2023-05-10T04:12:32;8.50;73.30
42085;DHT22;27746;52.228;20.890;2023-05-10T04:14:59;8.50;73.60
42085;DHT22;27746;52.228;20.890;2023-05-10T04:17:26;8.60;73.80
42085;DHT22;27746;52.228;20.890;2023-05-10T04:19:56;8.60;72.90
42085;DHT22;27746;52.228;20.890;2023-05-10T04:22:22;8.70;73.30
42085;DHT22;27746;52.228;20.890;2023-05-10T04:24:49;8.70;73.00
42085;DHT22;27746;52.228;20.890;2023-05-10T04:27:16;8.70;73.10
42085;DHT22;27746;52.228;20.890;2023-05-10T04:29:43;8.80;73.30
42085;DHT22;27746;52.228;20.890;2023-05-10T04:32:10;8.80;73.00
42085;DHT22;27746;52.228;20.890;2023-05-10T04:34:37;8.90;72.70
42085;DHT22;27746;52.228;20.890;2023-05-10T04:37:05;9.00;73.00
42085;DHT22;27746;52.228;20.890;2023-05-10T04:39:32;9.00;72.70
42085;DHT22;27746;52.228;20.890;2023-05-10T04:42:00;9.10;73.40
42085;DHT22;27746;52.228;20.890;2023-05-10T04:44:28;9.20;74.30
42085;DHT22;27746;52.228;20.890;2023-05-10T04:46:56;9.20;72.90
42085;DHT22;27746;52.228;20.890;2023-05-10T04:49:23;9.30;72.90
42085;DHT22;27746;52.228;20.890;2023-05-10T04:51:49;9.30;72.40
42085;DHT22;27746;52.228;20.890;2023-05-10T04:54:18;9.40;72.80
42085;DHT22;27746;52.228;20.890;2023-05-10T04:56:45;9.40;72.00
42085;DHT22;27746;52.228;20.890;2023-05-10T04:59:11;9.50;72.10
42085;DHT22;27746;52.228;20.890;2023-05-10T05:01:39;9.60;71.50
42085;DHT22;27746;52.228;20.890;2023-05-10T05:04:05;9.60;72.00
42085;DHT22;27746;52.228;20.890;2023-05-10T05:06:33;9.60;72.60
42085;DHT22;27746;52.228;20.890;2023-05-10T05:09:00;9.70;72.60
42085;DHT22;27746;52.228;20.890;2023-05-10T05:11:28;9.80;72.00
42085;DHT22;27746;52.228;20.890;2023-05-10T05:13:55;9.90;71.00
42085;DHT22;27746;52.228;20.890;2023-05-10T05:16:21;10.00;72.00
42085;DHT22;27746;52.228;20.890;2023-05-10T05:18:48;10.10;71.00
42085;DHT22;27746;52.228;20.890;2023-05-10T05:21:15;10.20;70.90
42085;DHT22;27746;52.228;20.890;2023-05-10T05:23:42;10.20;70.50
42085;DHT22;27746;52.228;20.890;2023-05-10T05:26:09;10.20;70.60
42085;DHT22;27746;52.228;20.890;2023-05-10T05:28:38;10.30;70.80
42085;DHT22;27746;52.228;20.890;2023-05-10T05:31:05;10.30;70.00
42085;DHT22;27746;52.228;20.890;2023-05-10T05:33:32;10.40;70.20
42085;DHT22;27746;52.228;20.890;2023-05-10T05:36:00;10.50;70.20
42085;DHT22;27746;52.228;20.890;2023-05-10T05:38:27;10.60;70.00
42085;DHT22;27746;52.228;20.890;2023-05-10T05:40:54;10.70;69.50
42085;DHT22;27746;52.228;20.890;2023-05-10T05:43:21;10.70;69.00
42085;DHT22;27746;52.228;20.890;2023-05-10T05:45:49;10.80;69.10
42085;DHT22;27746;52.228;20.890;2023-05-10T05:48:16;10.90;69.40
42085;DHT22;27746;52.228;20.890;2023-05-10T05:50:43;10.90;69.10
42085;DHT22;27746;52.228;20.890;2023-05-10T05:53:11;11.00;68.90
42085;DHT22;27746;52.228;20.890;2023-05-10T05:55:37;11.10;69.20
42085;DHT22;27746;52.228;20.890;2023-05-10T05:58:04;11.20;69.50
42085;DHT22;27746;52.228;20.890;2023-05-10T06:00:31;11.30;69.10
42085;DHT22;27746;52.228;20.890;2023-05-10T06:02:59;11.40;68.90
42085;DHT22;27746;52.228;20.890;2023-05-10T06:05:26;11.50;68.40
42085;DHT22;27746;52.228;20.890;2023-05-10T06:07:53;11.60;67.90
42085;DHT22;27746;52.228;20.890;2023-05-10T06:10:20;11.70;68.20
42085;DHT22;27746;52.228;20.890;2023-05-10T06:12:47;11.70;68.00
42085;DHT22;27746;52.228;20.890;2023-05-10T06:15:14;11.80;67.30
42085;DHT22;27746;52.228;20.890;2023-05-10T06:17:41;11.90;67.10
42085;DHT22;27746;52.228;20.890;2023-05-10T06:20:11;11.90;67.20
42085;DHT22;27746;52.228;20.890;2023-05-10T06:22:38;12.00;68.20
42085;DHT22;27746;52.228;20.890;2023-05-10T06:25:06;12.10;67.10
42085;DHT22;27746;52.228;20.890;2023-05-10T06:27:33;12.20;67.10
42085;DHT22;27746;52.228;20.890;2023-05-10T06:30:00;12.20;67.50
42085;DHT22;27746;52.228;20.890;2023-05-10T06:32:28;12.30;67.40
42085;DHT22;27746;52.228;20.890;2023-05-10T06:34:55;12.40;67.40
42085;DHT22;27746;52.228;20.890;2023-05-10T06:37:23;12.40;67.40
42085;DHT22;27746;52.228;20.890;2023-05-10T06:39:50;12.50;67.00
42085;DHT22;27746;52.228;20.890;2023-05-10T06:42:16;12.60;67.40
42085;DHT22;27746;52.228;20.890;2023-05-10T06:44:43;12.80;68.90
42085;DHT22;27746;52.228;20.890;2023-05-10T06:47:10;13.00;67.50
42085;DHT22;27746;52.228;20.890;2023-05-10T06:49:37;13.00;66.10
42085;DHT22;27746;52.228;20.890;2023-05-10T06:52:04;13.10;65.80
42085;DHT22;27746;52.228;20.890;2023-05-10T06:54:32;13.10;65.60
42085;DHT22;27746;52.228;20.890;2023-05-10T06:56:59;13.20;65.90
42085;DHT22;27746;52.228;20.890;2023-05-10T06:59:26;13.20;64.90
42085;DHT22;27746;52.228;20.890;2023-05-10T07:01:53;13.30;65.60
42085;DHT22;27746;52.228;20.890;2023-05-10T07:04:19;13.40;65.90
42085;DHT22;27746;52.228;20.890;2023-05-10T07:06:46;13.40;63.60
42085;DHT22;27746;52.228;20.890;2023-05-10T07:09:15;13.50;65.00
42085;DHT22;27746;52.228;20.890;2023-05-10T07:11:43;13.60;63.70
42085;DHT22;27746;52.228;20.890;2023-05-10T07:14:10;13.80;64.70
42085;DHT22;27746;52.228;20.890;2023-05-10T07:16:37;13.80;62.30
42085;DHT22;27746;52.228;20.890;2023-05-10T07:19:04;13.90;62.30
42085;DHT22;27746;52.228;20.890;2023-05-10T07:21:31;14.00;61.10
42085;DHT22;27746;52.228;20.890;2023-05-10T07:23:58;14.00;60.10
42085;DHT22;27746;52.228;20.890;2023-05-10T07:26:26;14.00;61.50
42085;DHT22;27746;52.228;20.890;2023-05-10T07:28:54;13.90;61.50
42085;DHT22;27746;52.228;20.890;2023-05-10T07:31:21;14.00;60.50
42085;DHT22;27746;52.228;20.890;2023-05-10T07:33:48;14.20;60.50
42085;DHT22;27746;52.228;20.890;2023-05-10T07:36:15;14.30;60.60
42085;DHT22;27746;52.228;20.890;2023-05-10T07:38:42;14.40;60.30
42085;DHT22;27746;52.228;20.890;2023-05-10T07:41:09;14.40;60.10
42085;DHT22;27746;52.228;20.890;2023-05-10T07:43:37;12.80;59.30
42085;DHT22;27746;52.228;20.890;2023-05-10T07:46:05;14.60;56.70
42085;DHT22;27746;52.228;20.890;2023-05-10T07:48:34;14.60;55.50
42085;DHT22;27746;52.228;20.890;2023-05-10T07:51:00;14.50;55.10
42085;DHT22;27746;52.228;20.890;2023-05-10T07:53:27;14.60;55.40
42085;DHT22;27746;52.228;20.890;2023-05-10T07:55:57;14.60;56.10
42085;DHT22;27746;52.228;20.890;2023-05-10T07:58:24;14.70;55.20
42085;DHT22;27746;52.228;20.890;2023-05-10T08:00:51;14.70;55.80
42085;DHT22;27746;52.228;20.890;2023-05-10T08:03:20;14.80;55.40
42085;DHT22;27746;52.228;20.890;2023-05-10T08:05:46;14.80;55.60
42085;DHT22;27746;52.228;20.890;2023-05-10T08:08:13;14.80;54.80
42085;DHT22;27746;52.228;20.890;2023-05-10T08:10:40;14.90;52.90
42085;DHT22;27746;52.228;20.890;2023-05-10T08:13:07;14.80;53.70
42085;DHT22;27746;52.228;20.890;2023-05-10T08:15:34;14.80;54.20
42085;DHT22;27746;52.228;20.890;2023-05-10T08:18:01;14.90;53.40
42085;DHT22;27746;52.228;20.890;2023-05-10T08:20:29;14.90;53.60
42085;DHT22;27746;52.228;20.890;2023-05-10T08:22:56;15.00;53.50
42085;DHT22;27746;52.228;20.890;2023-05-10T08:25:22;15.10;54.20
42085;DHT22;27746;52.228;20.890;2023-05-10T08:27:49;15.10;54.00
42085;DHT22;27746;52.228;20.890;2023-05-10T08:30:16;15.20;52.60
42085;DHT22;27746;52.228;20.890;2023-05-10T08:32:43;15.30;53.10
42085;DHT22;27746;52.228;20.890;2023-05-10T08:35:10;15.30;52.40
42085;DHT22;27746;52.228;20.890;2023-05-10T08:37:38;15.40;52.10
42085;DHT22;27746;52.228;20.890;2023-05-10T08:40:06;15.30;52.20
42085;DHT22;27746;52.228;20.890;2023-05-10T08:42:34;15.40;52.50
42085;DHT22;27746;52.228;20.890;2023-05-10T08:45:05;15.40;52.10
42085;DHT22;27746;52.228;20.890;2023-05-10T08:47:33;15.40;52.30
42085;DHT22;27746;52.228;20.890;2023-05-10T08:50:00;15.50;52.70
42085;DHT22;27746;52.228;20.890;2023-05-10T08:52:30;15.50;52.50
42085;DHT22;27746;52.228;20.890;2023-05-10T08:54:58;15.60;53.30
42085;DHT22;27746;52.228;20.890;2023-05-10T08:57:26;15.70;52.20
42085;DHT22;27746;52.228;20.890;2023-05-10T08:59:53;15.70;52.50
42085;DHT22;27746;52.228;20.890;2023-05-10T09:02:22;15.70;52.50
42085;DHT22;27746;52.228;20.890;2023-05-10T09:04:50;15.70;53.20
42085;DHT22;27746;52.228;20.890;2023-05-10T09:07:17;15.80;52.60
42085;DHT22;27746;52.228;20.890;2023-05-10T09:09:44;15.80;51.50
42085;DHT22;27746;52.228;20.890;2023-05-10T09:12:13;15.90;52.00
42085;DHT22;27746;52.228;20.890;2023-05-10T09:14:42;15.80;51.50
42085;DHT22;27746;52.228;20.890;2023-05-10T09:17:10;15.90;52.30
42085;DHT22;27746;52.228;20.890;2023-05-10T09:19:38;15.90;51.30
42085;DHT22;27746;52.228;20.890;2023-05-10T09:22:05;15.90;52.40
42085;DHT22;27746;52.228;20.890;2023-05-10T09:24:32;16.00;51.30
42085;DHT22;27746;52.228;20.890;2023-05-10T09:26:58;16.10;51.90
42085;DHT22;27746;52.228;20.890;2023-05-10T09:29:39;16.20;52.20
42085;DHT22;27746;52.228;20.890;2023-05-10T09:32:06;16.20;50.00
42085;DHT22;27746;52.228;20.890;2023-05-10T09:34:33;16.20;50.40
42085;DHT22;27746;52.228;20.890;2023-05-10T09:37:02;16.30;51.40
42085;DHT22;27746;52.228;20.890;2023-05-10T09:39:33;16.20;50.90
42085;DHT22;27746;52.228;20.890;2023-05-10T09:42:02;16.30;51.90
42085;DHT22;27746;52.228;20.890;2023-05-10T09:44:32;16.40;51.10
42085;DHT22;27746;52.228;20.890;2023-05-10T09:46:59;16.40;51.40
42085;DHT22;27746;52.228;20.890;2023-05-10T09:49:27;16.50;52.30
42085;DHT22;27746;52.228;20.890;2023-05-10T09:52:01;16.60;51.40
42085;DHT22;27746;52.228;20.890;2023-05-10T09:54:33;16.60;52.30
42085;DHT22;27746;52.228;20.890;2023-05-10T09:57:01;16.80;52.40
42085;DHT22;27746;52.228;20.890;2023-05-10T09:59:29;16.70;51.40
42085;DHT22;27746;52.228;20.890;2023-05-10T10:01:59;16.70;51.70
42085;DHT22;27746;52.228;20.890;2023-05-10T10:04:26;16.60;51.70
42085;DHT22;27746;52.228;20.890;2023-05-10T10:07:00;16.60;51.90
42085;DHT22;27746;52.228;20.890;2023-05-10T10:09:28;16.60;52.00
42085;DHT22;27746;52.228;20.890;2023-05-10T10:11:55;16.70;52.90
42085;DHT22;27746;52.228;20.890;2023-05-10T10:14:22;16.80;51.90
42085;DHT22;27746;52.228;20.890;2023-05-10T10:16:50;16.80;52.10
42085;DHT22;27746;52.228;20.890;2023-05-10T10:19:18;16.90;51.70
42085;DHT22;27746;52.228;20.890;2023-05-10T10:21:46;16.90;52.20
42085;DHT22;27746;52.228;20.890;2023-05-10T10:24:13;17.00;51.40
42085;DHT22;27746;52.228;20.890;2023-05-10T10:26:40;17.00;51.40
42085;DHT22;27746;52.228;20.890;2023-05-10T10:29:15;17.00;51.50
42085;DHT22;27746;52.228;20.890;2023-05-10T10:31:47;17.10;50.80
42085;DHT22;27746;52.228;20.890;2023-05-10T10:34:25;17.10;51.30
42085;DHT22;27746;52.228;20.890;2023-05-10T10:36:54;17.20;50.70
42085;DHT22;27746;52.228;20.890;2023-05-10T10:39:21;17.20;51.40
42085;DHT22;27746;52.228;20.890;2023-05-10T10:41:51;17.20;50.70
42085;DHT22;27746;52.228;20.890;2023-05-10T10:44:36;17.30;51.60
42085;DHT22;27746;52.228;20.890;2023-05-10T10:47:22;17.40;52.10
42085;DHT22;27746;52.228;20.890;2023-05-10T10:49:53;17.40;51.60
42085;DHT22;27746;52.228;20.890;2023-05-10T10:52:31;17.30;50.70
42085;DHT22;27746;52.228;20.890;2023-05-10T10:55:01;17.30;50.20
42085;DHT22;27746;52.228;20.890;2023-05-10T10:57:31;17.30;50.40
42085;DHT22;27746;52.228;20.890;2023-05-10T11:00:24;17.40;50.60
42085;DHT22;27746;52.228;20.890;2023-05-10T11:02:53;17.40;50.10
42085;DHT22;27746;52.228;20.890;2023-05-10T11:08:12;17.60;50.50
42085;DHT22;27746;52.228;20.890;2023-05-10T11:10:48;17.60;49.80
42085;DHT22;27746;52.228;20.890;2023-05-10T11:13:15;17.50;49.50
42085;DHT22;27746;52.228;20.890;2023-05-10T11:15:48;17.40;49.60
42085;DHT22;27746;52.228;20.890;2023-05-10T11:18:20;17.40;50.90
42085;DHT22;27746;52.228;20.890;2023-05-10T11:20:56;17.50;50.90
42085;DHT22;27746;52.228;20.890;2023-05-10T11:23:28;17.50;49.50
42085;DHT22;27746;52.228;20.890;2023-05-10T11:25:55;17.60;49.60
42085;DHT22;27746;52.228;20.890;2023-05-10T11:28:23;17.60;49.90
42085;DHT22;27746;52.228;20.890;2023-05-10T11:30:50;17.60;49.70
42085;DHT22;27746;52.228;20.890;2023-05-10T11:33:18;17.70;49.30
42085;DHT22;27746;52.228;20.890;2023-05-10T11:35:46;17.70;49.30
42085;DHT22;27746;52.228;20.890;2023-05-10T11:38:14;17.80;49.70
42085;DHT22;27746;52.228;20.890;2023-05-10T11:40:41;17.80;49.50
42085;DHT22;27746;52.228;20.890;2023-05-10T11:43:09;17.90;51.10
42085;DHT22;27746;52.228;20.890;2023-05-10T11:45:37;18.00;49.40
42085;DHT22;27746;52.228;20.890;2023-05-10T11:48:04;18.00;49.30
42085;DHT22;27746;52.228;20.890;2023-05-10T11:50:31;17.90;50.20
42085;DHT22;27746;52.228;20.890;2023-05-10T11:52:58;18.00;50.40
42085;DHT22;27746;52.228;20.890;2023-05-10T11:55:26;18.00;50.00
42085;DHT22;27746;52.228;20.890;2023-05-10T11:57:59;18.00;50.30
42085;DHT22;27746;52.228;20.890;2023-05-10T12:00:26;17.90;51.20
42085;DHT22;27746;52.228;20.890;2023-05-10T12:02:53;17.90;51.20
42085;DHT22;27746;52.228;20.890;2023-05-10T12:05:20;18.00;50.90
42085;DHT22;27746;52.228;20.890;2023-05-10T12:07:47;18.00;50.30
42085;DHT22;27746;52.228;20.890;2023-05-10T12:10:14;18.00;50.40
42085;DHT22;27746;52.228;20.890;2023-05-10T12:12:45;17.90;50.00
42085;DHT22;27746;52.228;20.890;2023-05-10T12:15:17;18.00;50.30
42085;DHT22;27746;52.228;20.890;2023-05-10T12:17:45;18.00;50.30
42085;DHT22;27746;52.228;20.890;2023-05-10T12:20:13;18.00;49.90
42085;DHT22;27746;52.228;20.890;2023-05-10T12:22:41;18.00;49.50
42085;DHT22;27746;52.228;20.890;2023-05-10T12:25:10;17.90;49.90
42085;DHT22;27746;52.228;20.890;2023-05-10T12:27:37;18.00;49.40
42085;DHT22;27746;52.228;20.890;2023-05-10T12:30:06;18.00;49.50
42085;DHT22;27746;52.228;20.890;2023-05-10T12:32:40;18.00;49.40
42085;DHT22;27746;52.228;20.890;2023-05-10T12:35:07;18.00;49.40
42085;DHT22;27746;52.228;20.890;2023-05-10T12:37:35;18.00;50.30
42085;DHT22;27746;52.228;20.890;2023-05-10T12:40:06;18.00;49.90
42085;DHT22;27746;52.228;20.890;2023-05-10T12:42:35;18.10;50.60
42085;DHT22;27746;52.228;20.890;2023-05-10T12:45:02;18.10;50.60
42085;DHT22;27746;52.228;20.890;2023-05-10T12:47:32;18.10;49.50
42085;DHT22;27746;52.228;20.890;2023-05-10T12:50:00;18.10;49.80
42085;DHT22;27746;52.228;20.890;2023-05-10T12:52:28;18.00;50.10
42085;DHT22;27746;52.228;20.890;2023-05-10T12:54:55;17.90;50.40
42085;DHT22;27746;52.228;20.890;2023-05-10T12:57:22;18.00;49.90
42085;DHT22;27746;52.228;20.890;2023-05-10T12:59:49;18.10;50.30
42085;DHT22;27746;52.228;20.890;2023-05-10T13:02:16;18.10;49.70
42085;DHT22;27746;52.228;20.890;2023-05-10T13:04:45;18.00;50.10
42085;DHT22;27746;52.228;20.890;2023-05-10T13:07:12;17.90;50.30
42085;DHT22;27746;52.228;20.890;2023-05-10T13:09:39;18.00;50.20
42085;DHT22;27746;52.228;20.890;2023-05-10T13:12:07;18.10;49.90
42085;DHT22;27746;52.228;20.890;2023-05-10T13:14:34;18.10;49.70
42085;DHT22;27746;52.228;20.890;2023-05-10T13:17:03;18.20;49.50
42085;DHT22;27746;52.228;20.890;2023-05-10T13:19:30;18.10;49.30
42085;DHT22;27746;52.228;20.890;2023-05-10T13:21:58;18.10;50.30
42085;DHT22;27746;52.228;20.890;2023-05-10T13:24:25;18.10;50.10
42085;DHT22;27746;52.228;20.890;2023-05-10T13:26:54;18.00;49.50
42085;DHT22;27746;52.228;20.890;2023-05-10T13:29:21;18.20;49.50
42085;DHT22;27746;52.228;20.890;2023-05-10T13:31:49;18.20;50.30
42085;DHT22;27746;52.228;20.890;2023-05-10T13:34:16;18.30;49.90
42085;DHT22;27746;52.228;20.890;2023-05-10T13:36:46;18.30;50.00
42085;DHT22;27746;52.228;20.890;2023-05-10T13:39:16;18.30;49.60
42085;DHT22;27746;52.228;20.890;2023-05-10T13:41:43;18.20;50.00
42085;DHT22;27746;52.228;20.890;2023-05-10T13:44:12;18.30;50.20
42085;DHT22;27746;52.228;20.890;2023-05-10T13:46:39;18.30;50.10
42085;DHT22;27746;52.228;20.890;2023-05-10T13:49:08;18.20;49.00
42085;DHT22;27746;52.228;20.890;2023-05-10T13:51:35;18.10;48.60
42085;DHT22;27746;52.228;20.890;2023-05-10T13:54:03;18.10;49.70
42085;DHT22;27746;52.228;20.890;2023-05-10T13:56:33;18.00;49.50
42085;DHT22;27746;52.228;20.890;2023-05-10T13:59:00;18.00;50.10
42085;DHT22;27746;52.228;20.890;2023-05-10T14:01:28;18.00;49.80
42085;DHT22;27746;52.228;20.890;2023-05-10T14:03:55;18.10;50.40
42085;DHT22;27746;52.228;20.890;2023-05-10T14:06:22;18.00;49.90
42085;DHT22;27746;52.228;20.890;2023-05-10T14:08:49;17.90;50.10
42085;DHT22;27746;52.228;20.890;2023-05-10T14:11:16;17.90;50.40
42085;DHT22;27746;52.228;20.890;2023-05-10T14:13:45;18.00;50.00
42085;DHT22;27746;52.228;20.890;2023-05-10T14:16:12;18.00;50.00
42085;DHT22;27746;52.228;20.890;2023-05-10T14:18:40;17.90;50.10
42085;DHT22;27746;52.228;20.890;2023-05-10T14:21:07;17.80;50.90
42085;DHT22;27746;52.228;20.890;2023-05-10T14:23:34;17.90;50.30
42085;DHT22;27746;52.228;20.890;2023-05-10T14:26:01;17.90;50.90
42085;DHT22;27746;52.228;20.890;2023-05-10T14:28:30;17.80;50.40
42085;DHT22;27746;52.228;20.890;2023-05-10T14:30:58;17.70;50.20
42085;DHT22;27746;52.228;20.890;2023-05-10T14:33:25;17.70;50.20
42085;DHT22;27746;52.228;20.890;2023-05-10T14:35:53;17.60;50.40
42085;DHT22;27746;52.228;20.890;2023-05-10T14:38:23;17.50;50.90
42085;DHT22;27746;52.228;20.890;2023-05-10T14:40:50;17.50;50.70
42085;DHT22;27746;52.228;20.890;2023-05-10T14:43:18;17.50;50.90
42085;DHT22;27746;52.228;20.890;2023-05-10T14:45:44;17.50;51.10
42085;DHT22;27746;52.228;20.890;2023-05-10T14:48:14;17.40;50.90
42085;DHT22;27746;52.228;20.890;2023-05-10T14:50:43;17.30;51.10
42085;DHT22;27746;52.228;20.890;2023-05-10T14:53:10;17.30;51.30
42085;DHT22;27746;52.228;20.890;2023-05-10T14:55:37;17.40;51.50
42085;DHT22;27746;52.228;20.890;2023-05-10T14:58:05;17.30;50.90
42085;DHT22;27746;52.228;20.890;2023-05-10T15:00:32;17.20;51.50
42085;DHT22;27746;52.228;20.890;2023-05-10T15:02:59;17.20;51.20
42085;DHT22;27746;52.228;20.890;2023-05-10T15:05:28;17.30;51.50
42085;DHT22;27746;52.228;20.890;2023-05-10T15:07:55;17.20;51.70
42085;DHT22;27746;52.228;20.890;2023-05-10T15:10:22;17.20;51.30
42085;DHT22;27746;52.228;20.890;2023-05-10T15:12:50;17.10;51.60
42085;DHT22;27746;52.228;20.890;2023-05-10T15:15:17;17.10;51.50
42085;DHT22;27746;52.228;20.890;2023-05-10T15:17:45;17.10;51.50
42085;DHT22;27746;52.228;20.890;2023-05-10T15:20:12;17.00;51.80
42085;DHT22;27746;52.228;20.890;2023-05-10T15:22:41;17.00;51.70
42085;DHT22;27746;52.228;20.890;2023-05-10T15:25:08;17.00;51.80
42085;DHT22;27746;52.228;20.890;2023-05-10T15:27:36;17.00;51.80
42085;DHT22;27746;52.228;20.890;2023-05-10T15:30:05;17.00;52.10
42085;DHT22;27746;52.228;20.890;2023-05-10T15:32:32;16.90;51.90
42085;DHT22;27746;52.228;20.890;2023-05-10T15:34:59;16.80;51.90